sensor_id;sensor_type;location;lat;lon;timestamp;P1;durP1;ratioP1;P2;durP2;ratioP2
37485;SDS011;23341;50.296;18.960;2023-02-25T00:02:39;111.47;;;59.70;;
37485;SDS011;23341;50.296;18.960;2023-02-25T00:07:44;90.22;;;49.60;;
37485;SDS011;23341;50.296;18.960;2023-02-25T00:12:49;108.30;;;54.58;;
37485;SDS011;23341;50.296;18.960;2023-02-25T00:17:54;116.45;;;56.08;;
37485;SDS011;23341;50.296;18.960;2023-02-25T00:22:59;102.95;;;52.95;;
37485;SDS011;23341;50.296;18.960;2023-02-25T00:28:04;93.55;;;48.72;;
37485;SDS011;23341;50.296;18.960;2023-02-25T00:33:09;88.05;;;45.97;;
37485;SDS011;23341;50.296;18.960;2023-02-25T00:38:14;97.97;;;46.78;;
37485;SDS011;23341;50.296;18.960;2023-02-25T00:43:20;89.05;;;46.83;;
37485;SDS011;23341;50.296;18.960;2023-02-25T00:48:26;97.97;;;50.28;;
37485;SDS011;23341;50.296;18.960;2023-02-25T00:53:30;85.53;;;44.17;;
37485;SDS011;23341;50.296;18.960;2023-02-25T00:58:35;90.05;;;46.35;;
37485;SDS011;23341;50.296;18.960;2023-02-25T01:03:41;115.53;;;56.90;;
37485;SDS011;23341;50.296;18.960;2023-02-25T01:08:45;95.05;;;44.40;;
37485;SDS011;23341;50.296;18.960;2023-02-25T01:13:49;78.93;;;35.58;;
37485;SDS011;23341;50.296;18.960;2023-02-25T01:18:56;71.28;;;33.28;;
37485;SDS011;23341;50.296;18.960;2023-02-25T01:24:06;97.55;;;44.38;;
37485;SDS011;23341;50.296;18.960;2023-02-25T01:29:15;88.93;;;42.20;;
37485;SDS011;23341;50.296;18.960;2023-02-25T01:34:23;54.65;;;25.92;;
37485;SDS011;23341;50.296;18.960;2023-02-25T01:39:28;54.47;;;24.88;;
37485;SDS011;23341;50.296;18.960;2023-02-25T01:44:35;43.20;;;21.58;;
37485;SDS011;23341;50.296;18.960;2023-02-25T01:50:03;36.50;;;19.08;;
37485;SDS011;23341;50.296;18.960;2023-02-25T01:55:11;36.25;;;19.48;;
37485;SDS011;23341;50.296;18.960;2023-02-25T02:00:16;31.33;;;19.27;;
37485;SDS011;23341;50.296;18.960;2023-02-25T02:05:27;43.27;;;21.93;;
37485;SDS011;23341;50.296;18.960;2023-02-25T02:10:42;46.70;;;25.00;;
37485;SDS011;23341;50.296;18.960;2023-02-25T02:15:47;46.78;;;24.48;;
37485;SDS011;23341;50.296;18.960;2023-02-25T02:21:09;39.58;;;22.58;;
37485;SDS011;23341;50.296;18.960;2023-02-25T02:26:32;45.17;;;24.08;;
37485;SDS011;23341;50.296;18.960;2023-02-25T02:31:52;32.67;;;20.17;;
37485;SDS011;23341;50.296;18.960;2023-02-25T02:37:04;39.63;;;24.17;;
37485;SDS011;23341;50.296;18.960;2023-02-25T02:42:18;44.88;;;23.48;;
37485;SDS011;23341;50.296;18.960;2023-02-25T02:47:36;50.83;;;25.15;;
37485;SDS011;23341;50.296;18.960;2023-02-25T02:52:43;33.53;;;17.40;;
37485;SDS011;23341;50.296;18.960;2023-02-25T02:57:54;33.72;;;19.95;;
37485;SDS011;23341;50.296;18.960;2023-02-25T03:03:05;82.32;;;45.03;;
37485;SDS011;23341;50.296;18.960;2023-02-25T03:13:21;27.58;;;15.68;;
37485;SDS011;23341;50.296;18.960;2023-02-25T03:18:28;31.17;;;19.33;;
37485;SDS011;23341;50.296;18.960;2023-02-25T03:23:41;38.17;;;22.15;;
37485;SDS011;23341;50.296;18.960;2023-02-25T03:28:49;18.38;;;12.30;;
37485;SDS011;23341;50.296;18.960;2023-02-25T03:33:55;32.17;;;17.45;;
37485;SDS011;23341;50.296;18.960;2023-02-25T03:39:05;20.67;;;13.25;;
37485;SDS011;23341;50.296;18.960;2023-02-25T03:44:14;17.67;;;12.02;;
37485;SDS011;23341;50.296;18.960;2023-02-25T03:49:25;32.78;;;17.52;;
37485;SDS011;23341;50.296;18.960;2023-02-25T03:54:33;16.13;;;10.52;;
37485;SDS011;23341;50.296;18.960;2023-02-25T03:59:38;14.57;;;9.38;;
37485;SDS011;23341;50.296;18.960;2023-02-25T04:04:44;13.75;;;8.75;;
37485;SDS011;23341;50.296;18.960;2023-02-25T04:09:49;11.43;;;8.32;;
37485;SDS011;23341;50.296;18.960;2023-02-25T04:14:53;13.05;;;9.85;;
37485;SDS011;23341;50.296;18.960;2023-02-25T04:19:59;14.00;;;8.38;;
37485;SDS011;23341;50.296;18.960;2023-02-25T04:25:04;14.77;;;9.45;;
37485;SDS011;23341;50.296;18.960;2023-02-25T04:30:10;15.48;;;9.63;;
37485;SDS011;23341;50.296;18.960;2023-02-25T04:35:16;18.50;;;9.60;;
37485;SDS011;23341;50.296;18.960;2023-02-25T04:40:21;13.27;;;9.57;;
37485;SDS011;23341;50.296;18.960;2023-02-25T04:45:26;17.48;;;11.25;;
37485;SDS011;23341;50.296;18.960;2023-02-25T04:50:32;18.83;;;12.35;;
37485;SDS011;23341;50.296;18.960;2023-02-25T04:55:37;19.20;;;12.77;;
37485;SDS011;23341;50.296;18.960;2023-02-25T05:00:41;20.95;;;13.38;;
37485;SDS011;23341;50.296;18.960;2023-02-25T05:05:51;19.83;;;12.53;;
37485;SDS011;23341;50.296;18.960;2023-02-25T05:10:55;15.88;;;13.05;;
37485;SDS011;23341;50.296;18.960;2023-02-25T05:16:03;21.92;;;14.32;;
37485;SDS011;23341;50.296;18.960;2023-02-25T05:21:11;23.73;;;14.00;;
37485;SDS011;23341;50.296;18.960;2023-02-25T05:26:18;18.25;;;11.68;;
37485;SDS011;23341;50.296;18.960;2023-02-25T05:31:24;21.38;;;13.88;;
37485;SDS011;23341;50.296;18.960;2023-02-25T05:36:31;20.58;;;13.90;;
37485;SDS011;23341;50.296;18.960;2023-02-25T05:41:35;29.77;;;15.68;;
37485;SDS011;23341;50.296;18.960;2023-02-25T05:46:40;28.77;;;15.13;;
37485;SDS011;23341;50.296;18.960;2023-02-25T05:51:46;31.55;;;15.27;;
37485;SDS011;23341;50.296;18.960;2023-02-25T05:56:51;23.40;;;16.38;;
37485;SDS011;23341;50.296;18.960;2023-02-25T06:01:56;35.88;;;17.52;;
37485;SDS011;23341;50.296;18.960;2023-02-25T06:07:02;21.80;;;13.23;;
37485;SDS011;23341;50.296;18.960;2023-02-25T06:12:06;29.45;;;15.60;;
37485;SDS011;23341;50.296;18.960;2023-02-25T06:17:11;29.73;;;15.32;;
37485;SDS011;23341;50.296;18.960;2023-02-25T06:22:17;35.90;;;18.60;;
37485;SDS011;23341;50.296;18.960;2023-02-25T06:27:22;31.05;;;17.27;;
37485;SDS011;23341;50.296;18.960;2023-02-25T06:32:26;25.17;;;15.90;;
37485;SDS011;23341;50.296;18.960;2023-02-25T06:37:32;27.52;;;16.73;;
37485;SDS011;23341;50.296;18.960;2023-02-25T06:42:37;30.52;;;17.58;;
37485;SDS011;23341;50.296;18.960;2023-02-25T06:47:41;23.52;;;17.27;;
37485;SDS011;23341;50.296;18.960;2023-02-25T06:52:47;28.00;;;18.35;;
37485;SDS011;23341;50.296;18.960;2023-02-25T06:57:51;30.20;;;19.42;;
37485;SDS011;23341;50.296;18.960;2023-02-25T07:02:56;38.88;;;22.58;;
37485;SDS011;23341;50.296;18.960;2023-02-25T07:08:02;33.25;;;19.83;;
37485;SDS011;23341;50.296;18.960;2023-02-25T07:13:06;22.67;;;14.88;;
37485;SDS011;23341;50.296;18.960;2023-02-25T07:18:11;33.40;;;18.88;;
37485;SDS011;23341;50.296;18.960;2023-02-25T07:23:19;31.63;;;20.88;;
37485;SDS011;23341;50.296;18.960;2023-02-25T07:28:23;30.35;;;18.02;;
37485;SDS011;23341;50.296;18.960;2023-02-25T07:33:27;13.57;;;10.70;;
37485;SDS011;23341;50.296;18.960;2023-02-25T07:38:34;27.30;;;18.63;;
37485;SDS011;23341;50.296;18.960;2023-02-25T07:43:39;17.05;;;11.43;;
37485;SDS011;23341;50.296;18.960;2023-02-25T07:48:43;14.30;;;9.48;;
37485;SDS011;23341;50.296;18.960;2023-02-25T07:53:49;18.05;;;13.43;;
37485;SDS011;23341;50.296;18.960;2023-02-25T07:58:55;10.30;;;8.30;;
37485;SDS011;23341;50.296;18.960;2023-02-25T08:04:01;9.27;;;6.97;;
37485;SDS011;23341;50.296;18.960;2023-02-25T08:09:09;22.38;;;13.88;;
37485;SDS011;23341;50.296;18.960;2023-02-25T08:14:15;12.45;;;9.90;;
37485;SDS011;23341;50.296;18.960;2023-02-25T08:19:19;19.15;;;12.93;;
37485;SDS011;23341;50.296;18.960;2023-02-25T08:24:24;20.05;;;13.00;;
37485;SDS011;23341;50.296;18.960;2023-02-25T08:29:29;17.17;;;12.93;;
37485;SDS011;23341;50.296;18.960;2023-02-25T08:34:33;33.88;;;13.43;;
37485;SDS011;23341;50.296;18.960;2023-02-25T08:39:39;25.77;;;13.57;;
37485;SDS011;23341;50.296;18.960;2023-02-25T08:44:44;40.40;;;19.33;;
37485;SDS011;23341;50.296;18.960;2023-02-25T08:49:48;20.65;;;11.18;;
37485;SDS011;23341;50.296;18.960;2023-02-25T08:54:54;18.67;;;9.48;;
37485;SDS011;23341;50.296;18.960;2023-02-25T08:59:58;16.13;;;7.60;;
37485;SDS011;23341;50.296;18.960;2023-02-25T09:05:02;16.75;;;11.27;;
37485;SDS011;23341;50.296;18.960;2023-02-25T09:10:09;24.08;;;11.23;;
37485;SDS011;23341;50.296;18.960;2023-02-25T09:15:15;12.85;;;7.80;;
37485;SDS011;23341;50.296;18.960;2023-02-25T09:20:20;10.77;;;7.22;;
37485;SDS011;23341;50.296;18.960;2023-02-25T09:25:28;14.40;;;8.57;;
37485;SDS011;23341;50.296;18.960;2023-02-25T09:30:33;10.30;;;5.75;;
37485;SDS011;23341;50.296;18.960;2023-02-25T09:35:37;12.90;;;7.35;;
37485;SDS011;23341;50.296;18.960;2023-02-25T09:40:45;12.10;;;7.07;;
37485;SDS011;23341;50.296;18.960;2023-02-25T09:45:50;21.58;;;10.55;;
37485;SDS011;23341;50.296;18.960;2023-02-25T09:50:58;17.20;;;10.02;;
37485;SDS011;23341;50.296;18.960;2023-02-25T09:56:09;6.35;;;3.97;;
37485;SDS011;23341;50.296;18.960;2023-02-25T10:01:17;18.55;;;7.40;;
37485;SDS011;23341;50.296;18.960;2023-02-25T10:06:36;24.63;;;12.75;;
37485;SDS011;23341;50.296;18.960;2023-02-25T10:16:54;19.38;;;12.77;;
37485;SDS011;23341;50.296;18.960;2023-02-25T10:22:11;30.73;;;16.25;;
37485;SDS011;23341;50.296;18.960;2023-02-25T10:27:28;28.15;;;14.95;;
37485;SDS011;23341;50.296;18.960;2023-02-25T10:32:36;25.90;;;15.23;;
37485;SDS011;23341;50.296;18.960;2023-02-25T10:37:44;27.52;;;17.67;;
37485;SDS011;23341;50.296;18.960;2023-02-25T10:42:50;33.75;;;19.50;;
37485;SDS011;23341;50.296;18.960;2023-02-25T10:48:00;32.08;;;20.15;;
37485;SDS011;23341;50.296;18.960;2023-02-25T10:53:12;26.33;;;14.35;;
37485;SDS011;23341;50.296;18.960;2023-02-25T10:58:25;51.17;;;21.60;;
37485;SDS011;23341;50.296;18.960;2023-02-25T11:03:37;50.88;;;27.77;;
37485;SDS011;23341;50.296;18.960;2023-02-25T11:08:48;33.25;;;19.92;;
37485;SDS011;23341;50.296;18.960;2023-02-25T11:13:58;25.13;;;14.70;;
37485;SDS011;23341;50.296;18.960;2023-02-25T11:19:09;53.50;;;28.02;;
37485;SDS011;23341;50.296;18.960;2023-02-25T11:24:18;23.90;;;14.20;;
37485;SDS011;23341;50.296;18.960;2023-02-25T11:29:35;14.73;;;8.18;;
37485;SDS011;23341;50.296;18.960;2023-02-25T11:34:44;21.25;;;11.23;;
37485;SDS011;23341;50.296;18.960;2023-02-25T11:39:50;13.15;;;8.30;;
37485;SDS011;23341;50.296;18.960;2023-02-25T11:44:59;20.50;;;11.43;;
37485;SDS011;23341;50.296;18.960;2023-02-25T11:50:07;19.92;;;13.70;;
37485;SDS011;23341;50.296;18.960;2023-02-25T11:55:23;13.23;;;7.97;;
37485;SDS011;23341;50.296;18.960;2023-02-25T12:00:45;13.80;;;8.90;;
37485;SDS011;23341;50.296;18.960;2023-02-25T12:06:02;19.33;;;8.48;;
37485;SDS011;23341;50.296;18.960;2023-02-25T12:11:30;12.82;;;7.97;;
37485;SDS011;23341;50.296;18.960;2023-02-25T12:22:59;15.57;;;8.80;;
37485;SDS011;23341;50.296;18.960;2023-02-25T12:28:30;41.17;;;14.27;;
37485;SDS011;23341;50.296;18.960;2023-02-25T12:33:54;54.58;;;17.67;;
37485;SDS011;23341;50.296;18.960;2023-02-25T12:39:15;33.70;;;15.45;;
37485;SDS011;23341;50.296;18.960;2023-02-25T12:44:42;26.27;;;13.50;;
37485;SDS011;23341;50.296;18.960;2023-02-25T12:50:07;20.00;;;11.50;;
37485;SDS011;23341;50.296;18.960;2023-02-25T12:55:44;26.88;;;16.30;;
37485;SDS011;23341;50.296;18.960;2023-02-25T13:01:11;33.25;;;18.50;;
37485;SDS011;23341;50.296;18.960;2023-02-25T13:06:35;41.38;;;17.42;;
37485;SDS011;23341;50.296;18.960;2023-02-25T13:12:14;51.95;;;24.90;;
37485;SDS011;23341;50.296;18.960;2023-02-25T13:17:34;23.00;;;15.77;;
37485;SDS011;23341;50.296;18.960;2023-02-25T13:22:50;28.10;;;16.30;;
37485;SDS011;23341;50.296;18.960;2023-02-25T13:28:11;26.00;;;14.57;;
37485;SDS011;23341;50.296;18.960;2023-02-25T13:33:25;33.10;;;16.38;;
37485;SDS011;23341;50.296;18.960;2023-02-25T13:38:45;55.78;;;21.33;;
37485;SDS011;23341;50.296;18.960;2023-02-25T13:44:18;10.65;;;7.72;;
37485;SDS011;23341;50.296;18.960;2023-02-25T13:55:26;17.95;;;10.73;;
37485;SDS011;23341;50.296;18.960;2023-02-25T14:00:53;29.55;;;14.93;;
37485;SDS011;23341;50.296;18.960;2023-02-25T14:06:13;18.05;;;9.90;;
37485;SDS011;23341;50.296;18.960;2023-02-25T14:11:33;23.10;;;13.32;;
37485;SDS011;23341;50.296;18.960;2023-02-25T14:16:51;17.27;;;9.73;;
37485;SDS011;23341;50.296;18.960;2023-02-25T14:22:18;26.25;;;15.70;;
37485;SDS011;23341;50.296;18.960;2023-02-25T14:27:30;24.83;;;13.77;;
37485;SDS011;23341;50.296;18.960;2023-02-25T14:32:47;27.17;;;16.00;;
37485;SDS011;23341;50.296;18.960;2023-02-25T14:38:04;20.80;;;15.35;;
37485;SDS011;23341;50.296;18.960;2023-02-25T14:43:18;29.17;;;14.63;;
37485;SDS011;23341;50.296;18.960;2023-02-25T14:48:33;21.48;;;11.85;;
37485;SDS011;23341;50.296;18.960;2023-02-25T14:53:53;20.92;;;12.93;;
37485;SDS011;23341;50.296;18.960;2023-02-25T15:05:20;10.52;;;7.65;;
37485;SDS011;23341;50.296;18.960;2023-02-25T15:10:36;10.13;;;6.63;;
37485;SDS011;23341;50.296;18.960;2023-02-25T15:21:36;15.48;;;11.32;;
37485;SDS011;23341;50.296;18.960;2023-02-25T15:26:43;43.95;;;19.70;;
37485;SDS011;23341;50.296;18.960;2023-02-25T15:37:23;20.17;;;12.07;;
37485;SDS011;23341;50.296;18.960;2023-02-25T15:42:39;27.55;;;16.00;;
37485;SDS011;23341;50.296;18.960;2023-02-25T15:47:48;35.08;;;19.30;;
37485;SDS011;23341;50.296;18.960;2023-02-25T15:52:57;37.63;;;19.40;;
37485;SDS011;23341;50.296;18.960;2023-02-25T16:03:42;62.90;;;33.20;;
37485;SDS011;23341;50.296;18.960;2023-02-25T16:08:51;22.67;;;15.05;;
37485;SDS011;23341;50.296;18.960;2023-02-25T16:14:02;23.42;;;14.85;;
37485;SDS011;23341;50.296;18.960;2023-02-25T16:29:31;22.55;;;12.38;;
37485;SDS011;23341;50.296;18.960;2023-02-25T16:34:44;22.23;;;13.43;;
37485;SDS011;23341;50.296;18.960;2023-02-25T16:39:55;27.67;;;16.35;;
37485;SDS011;23341;50.296;18.960;2023-02-25T16:45:00;25.58;;;15.38;;
37485;SDS011;23341;50.296;18.960;2023-02-25T16:50:10;26.00;;;14.82;;
37485;SDS011;23341;50.296;18.960;2023-02-25T16:55:21;33.33;;;18.45;;
37485;SDS011;23341;50.296;18.960;2023-02-25T17:00:32;32.20;;;21.35;;
37485;SDS011;23341;50.296;18.960;2023-02-25T17:05:37;22.58;;;14.40;;
37485;SDS011;23341;50.296;18.960;2023-02-25T17:10:44;26.08;;;16.52;;
37485;SDS011;23341;50.296;18.960;2023-02-25T17:15:50;41.92;;;21.30;;
37485;SDS011;23341;50.296;18.960;2023-02-25T17:20:58;32.67;;;18.80;;
37485;SDS011;23341;50.296;18.960;2023-02-25T17:26:06;26.63;;;16.27;;
37485;SDS011;23341;50.296;18.960;2023-02-25T17:31:15;28.77;;;15.23;;
37485;SDS011;23341;50.296;18.960;2023-02-25T17:36:21;27.60;;;14.60;;
37485;SDS011;23341;50.296;18.960;2023-02-25T17:41:29;24.40;;;16.70;;
37485;SDS011;23341;50.296;18.960;2023-02-25T17:46:34;23.77;;;15.73;;
37485;SDS011;23341;50.296;18.960;2023-02-25T17:51:41;23.88;;;15.43;;
37485;SDS011;23341;50.296;18.960;2023-02-25T17:56:47;15.45;;;10.75;;
37485;SDS011;23341;50.296;18.960;2023-02-25T18:02:00;24.77;;;15.63;;
37485;SDS011;23341;50.296;18.960;2023-02-25T18:12:33;26.55;;;17.45;;
37485;SDS011;23341;50.296;18.960;2023-02-25T18:17:39;24.50;;;15.82;;
37485;SDS011;23341;50.296;18.960;2023-02-25T18:22:45;18.48;;;12.73;;
37485;SDS011;23341;50.296;18.960;2023-02-25T18:27:52;21.85;;;14.27;;
37485;SDS011;23341;50.296;18.960;2023-02-25T18:32:57;25.48;;;15.20;;
37485;SDS011;23341;50.296;18.960;2023-02-25T18:38:02;37.60;;;20.85;;
37485;SDS011;23341;50.296;18.960;2023-02-25T18:43:10;31.08;;;18.25;;
37485;SDS011;23341;50.296;18.960;2023-02-25T18:48:17;43.13;;;22.50;;
37485;SDS011;23341;50.296;18.960;2023-02-25T18:53:22;29.33;;;16.85;;
37485;SDS011;23341;50.296;18.960;2023-02-25T18:58:28;24.13;;;14.75;;
37485;SDS011;23341;50.296;18.960;2023-02-25T19:03:34;17.30;;;10.77;;
37485;SDS011;23341;50.296;18.960;2023-02-25T19:08:41;19.25;;;12.00;;
37485;SDS011;23341;50.296;18.960;2023-02-25T19:13:47;28.38;;;16.65;;
37485;SDS011;23341;50.296;18.960;2023-02-25T19:18:52;30.38;;;17.67;;
37485;SDS011;23341;50.296;18.960;2023-02-25T19:23:57;27.63;;;16.15;;
37485;SDS011;23341;50.296;18.960;2023-02-25T19:29:06;25.70;;;16.58;;
37485;SDS011;23341;50.296;18.960;2023-02-25T19:34:11;28.30;;;17.30;;
37485;SDS011;23341;50.296;18.960;2023-02-25T19:39:16;26.35;;;17.17;;
37485;SDS011;23341;50.296;18.960;2023-02-25T19:44:22;49.60;;;22.98;;
37485;SDS011;23341;50.296;18.960;2023-02-25T19:49:27;35.35;;;18.38;;
37485;SDS011;23341;50.296;18.960;2023-02-25T19:54:31;46.97;;;26.80;;
37485;SDS011;23341;50.296;18.960;2023-02-25T19:59:37;31.65;;;20.50;;
37485;SDS011;23341;50.296;18.960;2023-02-25T20:04:41;36.15;;;20.15;;
37485;SDS011;23341;50.296;18.960;2023-02-25T20:09:46;48.97;;;23.58;;
37485;SDS011;23341;50.296;18.960;2023-02-25T20:14:51;64.15;;;29.33;;
37485;SDS011;23341;50.296;18.960;2023-02-25T20:19:55;119.30;;;45.63;;
37485;SDS011;23341;50.296;18.960;2023-02-25T20:24:59;100.85;;;41.60;;
37485;SDS011;23341;50.296;18.960;2023-02-25T20:30:06;135.57;;;45.58;;
37485;SDS011;23341;50.296;18.960;2023-02-25T20:35:14;147.43;;;48.88;;
37485;SDS011;23341;50.296;18.960;2023-02-25T20:40:22;154.80;;;55.33;;
37485;SDS011;23341;50.296;18.960;2023-02-25T20:45:29;123.70;;;48.13;;
37485;SDS011;23341;50.296;18.960;2023-02-25T20:50:34;58.55;;;27.45;;
37485;SDS011;23341;50.296;18.960;2023-02-25T20:55:39;89.68;;;33.65;;
37485;SDS011;23341;50.296;18.960;2023-02-25T21:13:51;56.58;;;34.65;;
37485;SDS011;23341;50.296;18.960;2023-02-25T21:18:56;33.88;;;22.92;;
37485;SDS011;23341;50.296;18.960;2023-02-25T21:24:02;38.08;;;23.45;;
37485;SDS011;23341;50.296;18.960;2023-02-25T21:29:36;41.10;;;23.63;;
37485;SDS011;23341;50.296;18.960;2023-02-25T21:34:46;43.20;;;25.35;;
37485;SDS011;23341;50.296;18.960;2023-02-25T21:41:09;42.20;;;25.25;;
37485;SDS011;23341;50.296;18.960;2023-02-25T21:46:17;43.67;;;25.70;;
37485;SDS011;23341;50.296;18.960;2023-02-25T21:51:23;36.55;;;21.35;;
37485;SDS011;23341;50.296;18.960;2023-02-25T22:03:36;158.60;;;55.95;;
37485;SDS011;23341;50.296;18.960;2023-02-25T22:08:41;137.40;;;52.33;;
37485;SDS011;23341;50.296;18.960;2023-02-25T22:13:47;132.02;;;46.65;;
37485;SDS011;23341;50.296;18.960;2023-02-25T22:18:54;36.95;;;20.13;;
37485;SDS011;23341;50.296;18.960;2023-02-25T22:23:59;100.55;;;34.63;;
37485;SDS011;23341;50.296;18.960;2023-02-25T22:29:05;40.05;;;17.52;;
37485;SDS011;23341;50.296;18.960;2023-02-25T22:35:06;51.72;;;20.80;;
37485;SDS011;23341;50.296;18.960;2023-02-25T22:47:24;55.88;;;21.33;;
37485;SDS011;23341;50.296;18.960;2023-02-25T22:52:30;128.70;;;39.60;;
37485;SDS011;23341;50.296;18.960;2023-02-25T22:57:36;81.07;;;26.80;;
37485;SDS011;23341;50.296;18.960;2023-02-25T23:03:38;80.38;;;27.90;;
37485;SDS011;23341;50.296;18.960;2023-02-25T23:08:46;33.38;;;14.07;;
37485;SDS011;23341;50.296;18.960;2023-02-25T23:13:55;44.75;;;21.73;;
37485;SDS011;23341;50.296;18.960;2023-02-25T23:19:51;147.65;;;52.83;;
37485;SDS011;23341;50.296;18.960;2023-02-25T23:25:02;44.53;;;24.10;;
37485;SDS011;23341;50.296;18.960;2023-02-25T23:36:55;69.93;;;25.42;;
37485;SDS011;23341;50.296;18.960;2023-02-25T23:42:01;52.20;;;22.90;;
37485;SDS011;23341;50.296;18.960;2023-02-25T23:47:06;124.32;;;42.35;;
37485;SDS011;23341;50.296;18.960;2023-02-25T23:58:05;65.07;;;23.83;;
